Time;durP1;ratioP1;P1;durP2;ratioP2;P2;SDS_P1;SDS_P2;PMS_P1;PMS_P2;Temp;Humidity;BMP_temperature;BMP_pressure;BME280_temperature;BME280_humidity;BME280_pressure;Samples;Min_cycle;Max_cycle;Signal;HPM_P1;HPM_P2
2022/05/31 00:01:53;;;;;;;;;;;;;;;12.32;49.85;100626.03;7354438;19;19926;-62
2022/05/31 00:04:19;;;;;;;;;;;;;;;12.26;49.97;100623.59;7361825;19;19926;-61
2022/05/31 00:06:44;;;;;;;;;;;;;;;12.22;49.85;100635.09;7361907;19;19932;-62
2022/05/31 00:09:10;;;;;;;;;;;;;;;12.16;50.09;100621.25;7365157;19;19915;-61
2022/05/31 00:11:40;;;;;;;;;;;;;;;12.11;49.68;100619.66;7360106;19;19923;-61
2022/05/31 00:14:06;;;;;;;;;;;;;;;12.06;49.73;100621.56;7362491;19;19911;-61
2022/05/31 00:16:31;;;;;;;;;;;;;;;12.01;49.87;100632.16;7363043;19;20595;-61
2022/05/31 00:18:56;;;;;;;;;;;;;;;11.96;49.57;100628.84;7362401;19;19939;-62
2022/05/31 00:21:25;;;;;;;;;;;;;;;11.91;49.57;100633.34;7364746;19;19910;-61
2022/05/31 00:23:50;;;;;;;;;;;;;;;11.86;49.67;100630.91;7363395;19;19926;-62
2022/05/31 00:26:15;;;;;;;;;;;;;;;11.84;49.31;100634.44;7362575;19;19986;-62
2022/05/31 00:28:40;;;;;;;;;;;;;;;11.79;49.80;100631.91;7362841;19;19915;-62
2022/05/31 00:31:07;;;;;;;;;;;;;;;11.70;50.17;100621.72;7363771;19;19915;-62
2022/05/31 00:33:32;;;;;;;;;;;;;;;11.70;50.33;100622.56;7362702;19;20016;-61
2022/05/31 00:35:58;;;;;;;;;;;;;;;11.66;50.68;100623.59;7361432;19;19915;-62
2022/05/31 00:38:23;;;;;;;;;;;;;;;11.63;50.11;100626.28;7362615;19;19911;-62
2022/05/31 00:40:48;;;;;;;;;;;;;;;11.58;50.63;100628.16;7363317;19;19918;-62
2022/05/31 00:43:16;;;;;;;;;;;;;;;11.55;50.33;100623.00;7361310;19;19939;-62
2022/05/31 00:46:01;;;;;;;;;;;;;;;11.51;50.10;100620.53;7363965;19;20026;-61
2022/05/31 00:48:27;;;;;;;;;;;;;;;11.44;50.40;100622.44;7361677;19;19926;-61
2022/05/31 00:50:57;;;;;;;;;;;;;;;11.41;50.13;100622.56;7361176;19;19938;-62
2022/05/31 00:53:25;;;;;;;;;;;;;;;11.32;50.33;100609.72;7362789;19;20002;-62
2022/05/31 00:55:56;;;;;;;;;;;;;;;11.32;50.31;100620.19;7360631;19;19951;-61
2022/05/31 00:58:28;;;;;;;;;;;;;;;11.27;50.63;100627.28;7362275;19;19923;-61
2022/05/31 01:00:54;;;;;;;;;;;;;;;11.23;50.38;100625.66;7363273;19;19951;-62
2022/05/31 01:03:22;;;;;;;;;;;;;;;11.18;50.53;100620.53;7361604;19;19923;-62
2022/05/31 01:05:47;;;;;;;;;;;;;;;11.14;50.29;100627.59;7361989;19;19922;-61
2022/05/31 01:08:12;;;;;;;;;;;;;;;11.09;50.84;100623.38;7361973;19;19923;-61
2022/05/31 01:10:40;;;;;;;;;;;;;;;11.06;50.43;100624.34;7356875;19;20343;-61
2022/05/31 01:13:05;;;;;;;;;;;;;;;11.03;50.61;100627.03;7359373;19;19934;-62
2022/05/31 01:15:30;;;;;;;;;;;;;;;11.00;50.64;100627.13;7362843;19;19929;-61
2022/05/31 01:17:55;;;;;;;;;;;;;;;10.97;51.02;100624.56;7360410;19;20288;-61
2022/05/31 01:20:21;;;;;;;;;;;;;;;10.94;51.06;100627.25;7361643;19;19923;-61
2022/05/31 01:22:47;;;;;;;;;;;;;;;10.90;51.14;100626.50;7360130;19;19949;-61
2022/05/31 01:25:24;;;;;;;;;;;;;;;10.89;51.17;100631.72;7362884;19;19922;-61
2022/05/31 01:27:58;;;;;;;;;;;;;;;10.85;50.75;100630.97;7362232;19;19930;-61
2022/05/31 01:30:24;;;;;;;;;;;;;;;10.83;51.06;100626.66;7359902;19;20439;-62
2022/05/31 01:32:58;;;;;;;;;;;;;;;10.80;51.13;100626.75;7356494;19;19924;-60
2022/05/31 01:35:31;;;;;;;;;;;;;;;10.77;50.82;100637.28;7362224;19;19919;-62
2022/05/31 01:38:03;;;;;;;;;;;;;;;10.73;51.08;100625.19;7367126;19;19919;-60
2022/05/31 01:40:49;;;;;;;;;;;;;;;10.70;50.97;100635.72;7368451;19;19927;-61
2022/05/31 01:43:14;;;;;;;;;;;;;;;10.65;50.78;100644.53;7367033;19;20339;-62
2022/05/31 01:45:46;;;;;;;;;;;;;;;10.61;51.17;100642.88;7367757;19;19929;-61
2022/05/31 01:48:12;;;;;;;;;;;;;;;10.58;50.98;100637.69;7366853;19;19919;-61
2022/05/31 01:50:37;;;;;;;;;;;;;;;10.54;51.38;100638.69;7367245;19;20996;-61
2022/05/31 01:53:03;;;;;;;;;;;;;;;10.51;51.03;100630.94;7367547;19;19927;-61
2022/05/31 01:55:30;;;;;;;;;;;;;;;10.49;51.14;100632.72;7368193;19;20581;-61
2022/05/31 01:57:58;;;;;;;;;;;;;;;10.45;50.82;100625.84;7357198;19;19922;-61
2022/05/31 02:00:23;;;;;;;;;;;;;;;10.42;51.17;100619.84;7364248;19;19937;-60
2022/05/31 02:02:51;;;;;;;;;;;;;;;10.39;51.16;100623.34;7366742;19;20326;-61
2022/05/31 02:05:17;;;;;;;;;;;;;;;10.35;51.02;100627.81;7364063;19;19914;-62
2022/05/31 02:07:51;;;;;;;;;;;;;;;10.33;51.33;100631.34;7366911;19;19990;-61
2022/05/31 02:10:16;;;;;;;;;;;;;;;10.30;50.59;100631.44;7365561;19;19918;-61
2022/05/31 02:12:42;;;;;;;;;;;;;;;10.26;51.03;100632.38;7363868;19;22061;-61
2022/05/31 02:15:07;;;;;;;;;;;;;;;10.23;51.08;100632.41;7364429;19;20533;-61
2022/05/31 02:17:32;;;;;;;;;;;;;;;10.19;51.09;100625.53;7366643;19;19911;-61
2022/05/31 02:19:58;;;;;;;;;;;;;;;10.17;50.50;100635.16;7364676;19;19929;-61
2022/05/31 02:22:26;;;;;;;;;;;;;;;10.13;50.78;100645.66;7366579;19;19922;-62
2022/05/31 02:24:51;;;;;;;;;;;;;;;10.08;51.15;100646.66;7364975;19;19914;-61
2022/05/31 02:27:16;;;;;;;;;;;;;;;10.06;50.95;100643.22;7360676;19;19915;-62
2022/05/31 02:29:41;;;;;;;;;;;;;;;10.03;51.47;100643.28;7362838;19;19919;-62
2022/05/31 02:32:08;;;;;;;;;;;;;;;10.00;50.76;100644.22;7363591;19;19953;-62
2022/05/31 02:34:35;;;;;;;;;;;;;;;9.98;51.10;100645.97;7364393;19;20443;-61
2022/05/31 02:37:00;;;;;;;;;;;;;;;9.95;50.99;100648.66;7362934;19;19948;-61
2022/05/31 02:39:26;;;;;;;;;;;;;;;9.93;50.24;100646.97;7366007;19;20268;-62
2022/05/31 02:41:51;;;;;;;;;;;;;;;9.77;50.95;100630.78;7365424;19;19945;-61
2022/05/31 02:44:17;;;;;;;;;;;;;;;9.84;51.11;100643.69;7362810;19;19922;-61
2022/05/31 02:46:42;;;;;;;;;;;;;;;9.80;51.25;100651.59;7363389;19;19990;-61
2022/05/31 02:49:08;;;;;;;;;;;;;;;9.78;51.45;100651.63;7361393;19;19939;-61
2022/05/31 02:51:34;;;;;;;;;;;;;;;9.76;50.93;100653.41;7365896;19;19914;-61
2022/05/31 02:54:00;;;;;;;;;;;;;;;9.73;51.30;100650.88;7363104;19;19922;-61
2022/05/31 02:56:25;;;;;;;;;;;;;;;9.72;50.90;100650.88;7366596;19;21365;-61
2022/05/31 02:58:50;;;;;;;;;;;;;;;9.70;51.87;100655.28;7362637;19;20406;-61
2022/05/31 03:01:24;;;;;;;;;;;;;;;9.67;51.30;100650.09;7363206;19;19931;-60
2022/05/31 03:03:49;;;;;;;;;;;;;;;9.64;51.01;100656.25;7365796;19;20665;-61
2022/05/31 03:06:14;;;;;;;;;;;;;;;9.62;51.40;100664.09;7349954;19;19935;-61
2022/05/31 03:08:40;;;;;;;;;;;;;;;9.58;51.29;100652.03;7365317;19;19939;-61
2022/05/31 03:11:08;;;;;;;;;;;;;;;9.57;51.39;100649.44;7359913;19;19926;-61
2022/05/31 03:13:33;;;;;;;;;;;;;;;9.54;51.23;100649.50;7362670;19;19914;-62
2022/05/31 03:16:00;;;;;;;;;;;;;;;9.52;51.54;100652.13;7364094;19;19919;-61
2022/05/31 03:18:30;;;;;;;;;;;;;;;9.48;51.73;100650.50;7351312;19;20006;-61
2022/05/31 03:20:57;;;;;;;;;;;;;;;9.48;51.34;100654.81;7365162;19;19923;-61
2022/05/31 03:23:29;;;;;;;;;;;;;;;9.45;52.05;100647.94;7364215;19;19938;-62
2022/05/31 03:25:57;;;;;;;;;;;;;;;9.44;51.46;100655.78;7365067;19;19978;-61
2022/05/31 03:28:22;;;;;;;;;;;;;;;9.42;51.99;100647.13;7363077;19;19919;-61
2022/05/31 03:30:47;;;;;;;;;;;;;;;9.41;52.10;100654.06;7365251;19;20525;-61
2022/05/31 03:33:13;;;;;;;;;;;;;;;9.38;51.47;100651.56;7364651;19;19923;-61
2022/05/31 03:35:39;;;;;;;;;;;;;;;9.35;51.66;100649.00;7364489;19;19926;-61
2022/05/31 03:38:04;;;;;;;;;;;;;;;9.33;51.59;100645.56;7364296;19;19919;-62
2022/05/31 03:43:14;;;;;;;;;;;;;;;9.27;51.59;100650.84;7365689;19;20259;-61
2022/05/31 03:45:40;;;;;;;;;;;;;;;9.24;51.53;100645.72;7360371;19;19923;-61
2022/05/31 03:48:06;;;;;;;;;;;;;;;9.21;51.48;100650.97;7364171;19;21803;-61
2022/05/31 03:50:32;;;;;;;;;;;;;;;9.17;51.43;100651.91;7363486;19;21251;-61
2022/05/31 03:52:57;;;;;;;;;;;;;;;9.14;51.74;100646.78;7364616;19;19957;-61
2022/05/31 03:55:23;;;;;;;;;;;;;;;9.10;51.41;100649.41;7365596;19;19953;-61
2022/05/31 03:57:49;;;;;;;;;;;;;;;9.07;51.80;100644.28;7360766;19;19918;-62
2022/05/31 04:00:15;;;;;;;;;;;;;;;9.04;51.87;100649.53;7363576;19;19918;-62
2022/05/31 04:02:40;;;;;;;;;;;;;;;9.02;51.08;100651.31;7362452;19;19926;-62
2022/05/31 04:05:06;;;;;;;;;;;;;;;8.99;51.38;100653.97;7364429;19;21574;-62
2022/05/31 04:07:31;;;;;;;;;;;;;;;8.97;50.80;100655.75;7362569;19;20259;-62
2022/05/31 04:09:56;;;;;;;;;;;;;;;8.94;51.65;100653.19;7360505;19;19926;-62
2022/05/31 04:12:21;;;;;;;;;;;;;;;8.92;51.07;100649.75;7363904;19;20253;-62
2022/05/31 04:14:47;;;;;;;;;;;;;;;8.90;51.79;100648.91;7362003;19;20391;-61
2022/05/31 04:17:12;;;;;;;;;;;;;;;8.86;51.08;100648.97;7363250;19;20996;-62
2022/05/31 04:19:40;;;;;;;;;;;;;;;8.84;51.31;100656.81;7363215;19;20649;-62
2022/05/31 04:22:05;;;;;;;;;;;;;;;8.82;51.02;100658.59;7363764;19;19915;-62
2022/05/31 04:24:30;;;;;;;;;;;;;;;8.81;51.66;100656.84;7362567;19;19925;-62
2022/05/31 04:26:56;;;;;;;;;;;;;;;8.77;51.72;100650.88;7362142;19;19943;-61
2022/05/31 04:29:21;;;;;;;;;;;;;;;8.76;51.85;100658.69;7363389;19;19919;-62
2022/05/31 04:31:48;;;;;;;;;;;;;;;8.74;51.69;100656.09;7363395;19;19943;-62
2022/05/31 04:34:14;;;;;;;;;;;;;;;8.72;51.49;100660.50;7364885;19;19926;-61
2022/05/31 04:36:39;;;;;;;;;;;;;;;8.69;51.17;100663.13;7362207;19;19914;-62
2022/05/31 04:39:04;;;;;;;;;;;;;;;8.67;51.42;100669.22;7362161;19;19911;-62
2022/05/31 04:41:29;;;;;;;;;;;;;;;8.65;51.38;100671.88;7362064;19;19923;-62
2022/05/31 04:43:56;;;;;;;;;;;;;;;8.63;51.45;100672.78;7360343;19;19946;-62
2022/05/31 04:46:23;;;;;;;;;;;;;;;8.60;51.60;100665.88;7362167;19;19994;-61
2022/05/31 04:48:48;;;;;;;;;;;;;;;8.58;50.89;100663.28;7361887;19;19982;-61
2022/05/31 04:51:14;;;;;;;;;;;;;;;8.57;51.30;100664.19;7363205;19;20634;-61
2022/05/31 04:53:40;;;;;;;;;;;;;;;8.55;51.79;100678.94;7360973;19;19919;-61
2022/05/31 04:56:08;;;;;;;;;;;;;;;8.55;51.59;100676.34;7361424;19;19934;-61
2022/05/31 04:58:33;;;;;;;;;;;;;;;8.55;51.77;100676.34;7361979;19;20370;-61
2022/05/31 05:01:01;;;;;;;;;;;;;;;8.55;52.05;100678.94;7363043;19;19966;-61
2022/05/31 05:03:27;;;;;;;;;;;;;;;8.55;51.80;100676.34;7362748;19;19918;-62
2022/05/31 05:05:52;;;;;;;;;;;;;;;8.55;51.51;100681.56;7363424;19;19922;-62
2022/05/31 05:08:17;;;;;;;;;;;;;;;8.56;51.13;100678.06;7362684;19;19911;-62
2022/05/31 05:10:46;;;;;;;;;;;;;;;8.56;51.30;100678.06;7364677;19;19921;-62
2022/05/31 05:13:12;;;;;;;;;;;;;;;8.57;51.57;100685.00;7368559;19;19938;-62
2022/05/31 05:15:41;;;;;;;;;;;;;;;8.57;51.87;100678.94;7366928;19;20390;-61
2022/05/31 05:18:06;;;;;;;;;;;;;;;8.58;52.15;100686.72;7368513;19;20323;-62
2022/05/31 05:20:35;;;;;;;;;;;;;;;8.58;52.06;100688.47;7368690;19;19935;-62
2022/05/31 05:23:02;;;;;;;;;;;;;;;8.60;52.13;100693.63;7369640;19;20890;-62
2022/05/31 05:25:27;;;;;;;;;;;;;;;8.60;52.18;100698.84;7368844;19;19946;-61
2022/05/31 05:27:53;;;;;;;;;;;;;;;8.61;52.16;100696.22;7365479;19;19919;-62
2022/05/31 05:33:02;;;;;;;;;;;;;;;8.64;52.73;100701.38;7367243;19;20008;-62
2022/05/31 05:35:27;;;;;;;;;;;;;;;8.66;52.53;100699.59;7366878;19;19990;-62
2022/05/31 05:37:52;;;;;;;;;;;;;;;8.68;52.42;100697.88;7367207;19;19925;-62
2022/05/31 05:40:17;;;;;;;;;;;;;;;8.70;52.75;100701.28;7368086;19;20256;-62
2022/05/31 05:42:43;;;;;;;;;;;;;;;8.73;52.44;100700.41;7366889;19;20312;-62
2022/05/31 05:45:10;;;;;;;;;;;;;;;8.76;52.23;100705.53;7366663;19;20342;-62
2022/05/31 05:47:35;;;;;;;;;;;;;;;8.80;52.53;100707.22;7367740;19;19923;-61
2022/05/31 05:50:00;;;;;;;;;;;;;;;8.83;52.64;100707.19;7368370;19;20006;-61
2022/05/31 05:52:25;;;;;;;;;;;;;;;8.88;53.04;100718.38;7367359;19;19923;-62
2022/05/31 05:54:51;;;;;;;;;;;;;;;8.91;53.35;100715.72;7368461;19;19922;-62
2022/05/31 05:57:16;;;;;;;;;;;;;;;8.95;52.77;100722.59;7365331;19;19923;-62
2022/05/31 05:59:41;;;;;;;;;;;;;;;8.98;52.86;100717.38;7361631;19;19914;-62
2022/05/31 06:02:11;;;;;;;;;;;;;;;9.01;52.43;100717.28;7366427;19;19950;-62
2022/05/31 06:04:44;;;;;;;;;;;;;;;9.04;53.17;100717.25;7368319;19;19989;-62
2022/05/31 06:07:14;;;;;;;;;;;;;;;9.07;53.09;100717.22;7365901;19;19926;-61
2022/05/31 06:09:40;;;;;;;;;;;;;;;9.12;52.90;100721.47;7366304;19;19911;-62
2022/05/31 06:12:09;;;;;;;;;;;;;;;9.15;53.25;100724.03;7366919;19;19918;-62
2022/05/31 06:14:42;;;;;;;;;;;;;;;9.18;53.44;100724.00;7365242;19;19926;-61
2022/05/31 06:17:31;;;;;;;;;;;;;;;9.22;53.06;100721.28;7361846;19;19934;-62
2022/05/31 06:20:00;;;;;;;;;;;;;;;9.26;53.33;100728.19;7360321;19;19918;-61
2022/05/31 06:22:25;;;;;;;;;;;;;;;9.31;53.58;100728.09;7361985;19;19937;-62
2022/05/31 06:24:50;;;;;;;;;;;;;;;9.35;53.87;100721.97;7361909;19;19961;-61
2022/05/31 06:27:16;;;;;;;;;;;;;;;9.41;53.82;100727.06;7364294;19;19923;-61
2022/05/31 06:29:41;;;;;;;;;;;;;;;9.48;53.73;100723.47;7352032;19;19933;-62
2022/05/31 06:32:06;;;;;;;;;;;;;;;9.55;53.72;100719.84;7361825;19;19922;-62
2022/05/31 06:34:31;;;;;;;;;;;;;;;9.63;54.09;100727.56;7361424;19;19914;-62
2022/05/31 06:37:08;;;;;;;;;;;;;;;9.70;54.01;100717.84;7360840;19;19952;-61
2022/05/31 06:39:35;;;;;;;;;;;;;;;9.78;53.56;100721.16;7361766;19;20276;-62
2022/05/31 06:42:00;;;;;;;;;;;;;;;9.84;54.27;100727.13;7365106;19;20367;-62
2022/05/31 06:44:25;;;;;;;;;;;;;;;9.93;53.77;100731.28;7363205;19;19936;-61
2022/05/31 06:46:50;;;;;;;;;;;;;;;9.99;54.15;100726.00;7366312;19;20772;-62
2022/05/31 06:49:16;;;;;;;;;;;;;;;9.99;54.03;100717.31;7366776;19;20578;-62
2022/05/31 06:57:09;;;;;;;;;;;;;;;10.38;54.14;100736.50;7365646;19;20010;-61
2022/05/31 06:59:34;;;;;;;;;;;;;;;10.48;54.09;100739.78;7361863;19;20694;-61
2022/05/31 07:02:05;;;;;;;;;;;;;;;10.57;53.99;100750.03;7353844;19;19952;-62
2022/05/31 07:04:34;;;;;;;;;;;;;;;10.67;54.16;100748.09;7362485;19;19911;-62
2022/05/31 07:07:00;;;;;;;;;;;;;;;10.77;54.03;100754.81;7365469;19;19923;-62
2022/05/31 07:09:25;;;;;;;;;;;;;;;10.87;54.29;100751.09;7358996;19;19932;-62
2022/05/31 07:11:50;;;;;;;;;;;;;;;10.98;54.46;100762.16;7361526;19;19978;-62
2022/05/31 07:14:15;;;;;;;;;;;;;;;11.09;54.24;100762.75;7362527;19;19915;-62
2022/05/31 07:16:41;;;;;;;;;;;;;;;11.22;53.99;100765.09;7367010;19;19971;-62
2022/05/31 07:19:06;;;;;;;;;;;;;;;11.32;54.38;100756.97;7366893;19;19943;-62
2022/05/31 07:21:31;;;;;;;;;;;;;;;11.43;53.93;100760.19;7365807;19;19930;-61
2022/05/31 07:23:57;;;;;;;;;;;;;;;11.54;54.01;100759.91;7364848;19;19922;-61
2022/05/31 07:26:22;;;;;;;;;;;;;;;11.64;53.97;100758.75;7364960;19;19959;-62
2022/05/31 07:28:47;;;;;;;;;;;;;;;11.73;54.11;100757.66;7361399;19;20547;-62
2022/05/31 07:31:13;;;;;;;;;;;;;;;11.82;54.20;100756.59;7360277;19;19926;-62
2022/05/31 07:33:38;;;;;;;;;;;;;;;11.91;53.84;100758.94;7358737;19;19946;-61
2022/05/31 07:36:05;;;;;;;;;;;;;;;11.99;53.87;100758.75;7367626;19;19934;-62
2022/05/31 07:38:30;;;;;;;;;;;;;;;12.06;53.58;100766.38;7363865;19;20280;-62
2022/05/31 07:40:55;;;;;;;;;;;;;;;12.13;53.83;100762.72;7363491;19;19906;-62
2022/05/31 07:43:21;;;;;;;;;;;;;;;12.19;53.91;100759.91;7364078;19;19919;-62
2022/05/31 07:45:46;;;;;;;;;;;;;;;12.25;53.81;100763.25;7347422;19;19925;-62
2022/05/31 07:48:11;;;;;;;;;;;;;;;12.31;53.30;100766.53;7349297;19;19935;-61
2022/05/31 07:50:37;;;;;;;;;;;;;;;12.37;53.72;100770.78;7348423;19;19922;-62
2022/05/31 07:53:03;;;;;;;;;;;;;;;12.44;53.53;100764.44;7339943;19;20610;-62
2022/05/31 07:55:29;;;;;;;;;;;;;;;12.50;53.63;100756.41;7363281;19;20546;-62
2022/05/31 08:00:38;;;;;;;;;;;;;;;12.64;53.41;100771.72;7360403;19;19917;-62
2022/05/31 08:03:05;;;;;;;;;;;;;;;12.69;53.90;100757.56;7349903;19;19914;-61
2022/05/31 08:05:30;;;;;;;;;;;;;;;12.78;53.31;100756.44;7358144;19;19925;-62
2022/05/31 08:07:55;;;;;;;;;;;;;;;12.85;53.26;100757.94;7363736;19;19935;-62
2022/05/31 08:10:21;;;;;;;;;;;;;;;12.94;53.60;100757.66;7365001;19;19921;-62
2022/05/31 08:12:46;;;;;;;;;;;;;;;13.01;53.52;100745.22;7361817;19;19970;-62
2022/05/31 08:15:12;;;;;;;;;;;;;;;13.06;53.20;100747.69;7365375;19;20212;-62
2022/05/31 08:17:37;;;;;;;;;;;;;;;13.12;53.34;100747.50;7366743;19;20011;-61
2022/05/31 08:20:04;;;;;;;;;;;;;;;13.17;53.21;100754.28;7365821;19;19923;-61
2022/05/31 08:22:29;;;;;;;;;;;;;;;13.22;52.99;100757.66;7366999;19;19911;-61
2022/05/31 08:24:54;;;;;;;;;;;;;;;13.29;53.79;100747.00;7364145;19;19930;-62
2022/05/31 08:27:19;;;;;;;;;;;;;;;13.36;53.00;100743.25;7367043;19;19922;-62
2022/05/31 08:29:45;;;;;;;;;;;;;;;13.44;53.13;100746.47;7367405;19;19959;-61
2022/05/31 08:32:10;;;;;;;;;;;;;;;13.50;53.25;100749.75;7365199;19;19922;-61
2022/05/31 08:34:36;;;;;;;;;;;;;;;13.60;53.39;100752.06;7363231;19;19914;-62
2022/05/31 08:37:01;;;;;;;;;;;;;;;13.70;53.42;100751.69;7364134;19;19942;-62
2022/05/31 08:39:26;;;;;;;;;;;;;;;13.82;53.20;100754.78;7366711;19;19918;-62
2022/05/31 08:42:04;;;;;;;;;;;;;;;13.92;53.61;100758.78;7365188;19;20263;-62
2022/05/31 08:44:36;;;;;;;;;;;;;;;14.02;53.13;100749.69;7366380;19;20240;-62
2022/05/31 08:47:02;;;;;;;;;;;;;;;14.10;53.58;100754.66;7371599;19;19940;-62
2022/05/31 08:52:40;;;;;;;;;;;;;;;14.27;53.03;100755.75;7270157;19;2004418;-62
2022/05/31 08:57:58;;;;;;;;;;;;;;;14.47;53.06;100756.78;7370938;19;20347;-62
2022/05/31 09:00:26;;;;;;;;;;;;;;;14.55;52.79;100752.13;7367598;19;19938;-62
2022/05/31 09:02:51;;;;;;;;;;;;;;;14.63;53.16;100747.41;7372211;19;19914;-62
2022/05/31 09:05:37;;;;;;;;;;;;;;;14.74;52.91;100755.72;7371101;19;19933;-62
2022/05/31 09:08:15;;;;;;;;;;;;;;;14.85;52.65;100749.19;7371557;19;19922;-62
2022/05/31 09:10:45;;;;;;;;;;;;;;;14.97;52.59;100751.34;7365833;19;20248;-62
2022/05/31 09:13:33;;;;;;;;;;;;;;;15.10;52.98;100752.56;7367999;19;20675;-61
2022/05/31 09:16:07;;;;;;;;;;;;;;;15.22;52.64;100752.06;7369051;19;19947;-62
2022/05/31 09:18:38;;;;;;;;;;;;;;;15.33;52.78;100743.72;7368367;19;19926;-62
2022/05/31 09:21:13;;;;;;;;;;;;;;;15.48;52.51;100752.75;7372455;19;19926;-62
2022/05/31 09:23:38;;;;;;;;;;;;;;;15.63;52.50;100751.25;7363103;19;20262;-62
2022/05/31 09:26:10;;;;;;;;;;;;;;;15.76;52.38;100752.47;7371371;19;19927;-62
2022/05/31 09:28:42;;;;;;;;;;;;;;;15.90;52.23;100749.22;7368853;19;19921;-62
2022/05/31 09:31:24;;;;;;;;;;;;;;;16.00;51.77;100747.91;7370238;19;20311;-62
2022/05/31 09:34:10;;;;;;;;;;;;;;;16.07;51.61;100750.22;7367628;19;19950;-62
2022/05/31 09:36:55;;;;;;;;;;;;;;;16.16;51.75;100743.66;7369025;19;19923;-62
2022/05/31 09:39:22;;;;;;;;;;;;;;;16.29;52.06;100744.81;7370254;19;19954;-62
2022/05/31 09:41:48;;;;;;;;;;;;;;;16.41;51.79;100753.06;7371690;19;20275;-63
2022/05/31 09:44:19;;;;;;;;;;;;;;;16.51;51.66;100757.00;7369332;19;19926;-62
2022/05/31 09:46:44;;;;;;;;;;;;;;;16.61;51.29;100755.66;7367846;19;19926;-62
2022/05/31 09:49:28;;;;;;;;;;;;;;;16.75;51.61;100755.03;7370681;19;25503;-62
2022/05/31 09:51:53;;;;;;;;;;;;;;;16.90;51.09;100742.91;7359610;19;19922;-63
2022/05/31 09:57:07;;;;;;;;;;;;;;;17.15;51.25;100746.06;7363991;19;19982;-63
2022/05/31 09:59:34;;;;;;;;;;;;;;;17.24;51.05;100742.97;7365866;19;19927;-62
2022/05/31 10:02:19;;;;;;;;;;;;;;;17.31;50.60;100744.34;7367148;19;19922;-62
2022/05/31 10:04:46;;;;;;;;;;;;;;;17.41;50.46;100744.75;7368264;19;20539;-63
2022/05/31 10:07:12;;;;;;;;;;;;;;;17.63;50.92;100749.78;7370346;19;19907;-63
2022/05/31 10:09:39;;;;;;;;;;;;;;;17.94;50.62;100742.94;7366759;19;19919;-62
2022/05/31 10:12:12;;;;;;;;;;;;;;;18.23;50.93;100744.03;7367391;19;20842;-63
2022/05/31 10:14:39;;;;;;;;;;;;;;;18.46;50.48;100745.47;7367794;19;19918;-62
2022/05/31 10:17:15;;;;;;;;;;;;;;;18.61;49.84;100745.47;7367157;19;19922;-62
2022/05/31 10:19:40;;;;;;;;;;;;;;;18.69;49.51;100747.69;7368182;19;20347;-62
2022/05/31 10:22:20;;;;;;;;;;;;;;;18.69;49.22;100753.00;7368402;19;19922;-62
2022/05/31 10:24:46;;;;;;;;;;;;;;;18.66;48.61;100761.09;7367843;19;19918;-63
2022/05/31 10:27:11;;;;;;;;;;;;;;;18.58;48.77;100761.50;7367101;19;19975;-62
2022/05/31 10:29:47;;;;;;;;;;;;;;;18.51;48.61;100759.28;7367319;19;19975;-62
2022/05/31 10:32:27;;;;;;;;;;;;;;;18.52;48.40;100761.84;7365907;19;19918;-62
2022/05/31 10:35:08;;;;;;;;;;;;;;;18.74;49.64;100747.44;7366430;19;19945;-63
2022/05/31 10:37:33;;;;;;;;;;;;;;;19.21;49.85;100750.06;7368121;19;20540;-63
2022/05/31 10:40:09;;;;;;;;;;;;;;;19.78;50.43;100755.53;7366440;19;20119;-63
2022/05/31 10:42:38;;;;;;;;;;;;;;;20.28;49.18;100754.25;7366577;19;19939;-63
2022/05/31 10:45:05;;;;;;;;;;;;;;;20.62;48.99;100752.13;7367616;19;20547;-63
2022/05/31 10:47:30;;;;;;;;;;;;;;;20.81;48.11;100768.59;7363167;19;19919;-63
2022/05/31 10:49:55;;;;;;;;;;;;;;;20.89;47.79;100760.13;7367901;19;19919;-63
2022/05/31 10:52:23;;;;;;;;;;;;;;;20.95;48.01;100752.63;7365717;19;19949;-63
2022/05/31 10:54:58;;;;;;;;;;;;;;;21.15;48.17;100761.09;7368304;19;19923;-63
2022/05/31 10:57:29;;;;;;;;;;;;;;;21.46;48.46;100766.09;7366309;19;19919;-63
2022/05/31 10:59:58;;;;;;;;;;;;;;;21.82;47.97;100775.19;7366562;19;19919;-63
2022/05/31 11:02:42;;;;;;;;;;;;;;;22.03;46.68;100776.34;7367245;19;20575;-63
2022/05/31 11:05:12;;;;;;;;;;;;;;;22.13;46.17;100773.09;7365895;19;20555;-63
2022/05/31 11:13:40;;;;;;;;;;;;;;;21.57;44.41;100788.44;7366112;19;19968;-63
2022/05/31 11:16:24;;;;;;;;;;;;;;;21.27;43.77;100786.81;7363211;19;19921;-63
2022/05/31 11:19:30;;;;;;;;;;;;;;;20.97;43.85;100795.00;7366270;19;19919;-62
2022/05/31 11:21:56;;;;;;;;;;;;;;;20.63;44.26;100796.28;7258058;19;2004496;-62
2022/05/31 11:24:30;;;;;;;;;;;;;;;20.40;44.09;100795.06;7360528;19;20257;-63
2022/05/31 11:27:04;;;;;;;;;;;;;;;20.21;44.07;100787.38;7361005;19;20591;-63
2022/05/31 11:29:47;;;;;;;;;;;;;;;20.10;44.48;100798.63;7365218;19;19922;-63
2022/05/31 11:32:27;;;;;;;;;;;;;;;20.01;44.66;100787.75;7365824;19;19960;-62
2022/05/31 11:35:15;;;;;;;;;;;;;;;19.99;44.98;100790.50;7363291;19;19933;-63
2022/05/31 11:37:46;;;;;;;;;;;;;;;20.23;45.59;100793.44;7362779;19;19929;-63
2022/05/31 11:40:34;;;;;;;;;;;;;;;20.53;45.73;100795.16;7363225;19;19991;-62
2022/05/31 11:43:05;;;;;;;;;;;;;;;20.75;45.05;100795.53;7365323;19;19911;-62
2022/05/31 11:45:36;;;;;;;;;;;;;;;20.86;45.12;100794.84;7362996;19;19922;-62
2022/05/31 11:48:15;;;;;;;;;;;;;;;20.89;44.56;100794.66;7363259;19;19911;-62
2022/05/31 11:50:44;;;;;;;;;;;;;;;20.84;44.04;100789.63;7358786;19;19914;-63
2022/05/31 11:53:12;;;;;;;;;;;;;;;20.75;44.06;100795.53;7364290;19;19923;-62
2022/05/31 11:55:57;;;;;;;;;;;;;;;20.67;43.83;100795.16;7365672;19;19942;-62
2022/05/31 11:58:41;;;;;;;;;;;;;;;20.64;44.10;100793.56;7363953;19;19922;-63
2022/05/31 12:01:12;;;;;;;;;;;;;;;20.84;44.80;100797.59;7360661;19;20324;-62
2022/05/31 12:03:40;;;;;;;;;;;;;;;21.15;45.10;100785.00;7362192;19;19943;-63
2022/05/31 12:06:28;;;;;;;;;;;;;;;21.43;44.71;100774.25;7363925;19;19962;-63
2022/05/31 12:09:14;;;;;;;;;;;;;;;21.94;45.04;100782.31;7363862;19;19989;-63
2022/05/31 12:11:42;;;;;;;;;;;;;;;22.66;45.91;100779.09;7363218;19;20289;-63
2022/05/31 12:14:09;;;;;;;;;;;;;;;23.29;44.94;100770.88;7362601;19;20029;-63
2022/05/31 12:16:35;;;;;;;;;;;;;;;23.72;43.90;100775.66;7362096;19;19922;-63
2022/05/31 12:19:10;;;;;;;;;;;;;;;23.99;43.16;100783.34;7359545;19;19915;-63
2022/05/31 12:21:42;;;;;;;;;;;;;;;24.17;42.61;100782.88;7363342;19;20259;-62
2022/05/31 12:24:26;;;;;;;;;;;;;;;24.32;42.47;100779.84;7361803;19;19915;-63
2022/05/31 12:27:01;;;;;;;;;;;;;;;24.45;42.63;100785.09;7362816;19;19986;-63
2022/05/31 12:29:39;;;;;;;;;;;;;;;24.49;42.09;100775.88;7363450;19;20514;-61
2022/05/31 12:32:23;;;;;;;;;;;;;;;24.49;41.49;100781.22;7356449;19;20376;-63
2022/05/31 12:34:48;;;;;;;;;;;;;;;24.45;41.25;100779.75;7359196;19;19931;-63
2022/05/31 12:37:16;;;;;;;;;;;;;;;24.37;41.05;100784.84;7360824;19;19930;-63
2022/05/31 12:39:43;;;;;;;;;;;;;;;24.21;40.33;100787.84;7362403;19;19931;-62
2022/05/31 12:42:14;;;;;;;;;;;;;;;24.03;40.13;100775.97;7361125;19;20339;-63
2022/05/31 12:44:47;;;;;;;;;;;;;;;23.82;39.70;100770.44;7360224;19;19932;-63
2022/05/31 12:47:15;;;;;;;;;;;;;;;23.65;40.02;100768.25;7361678;19;20514;-63
2022/05/31 12:49:50;;;;;;;;;;;;;;;23.49;40.85;100779.19;7361545;19;20443;-63
2022/05/31 12:54:54;;;;;;;;;;;;;;;23.45;41.05;100775.91;7362355;19;20589;-63
2022/05/31 12:57:20;;;;;;;;;;;;;;;23.65;41.55;100770.91;7360874;19;19934;-63
2022/05/31 12:59:47;;;;;;;;;;;;;;;24.00;42.51;100769.03;7363244;19;19915;-63
2022/05/31 13:02:35;;;;;;;;;;;;;;;24.49;42.86;100759.88;7361832;19;19927;-63
2022/05/31 13:05:06;;;;;;;;;;;;;;;25.12;43.44;100756.59;7361565;19;19970;-64
2022/05/31 13:07:42;;;;;;;;;;;;;;;25.73;42.87;100756.78;7360177;19;19919;-63
2022/05/31 13:10:28;;;;;;;;;;;;;;;26.31;42.06;100759.78;7362640;19;19914;-63
2022/05/31 13:21:11;;;;;;;;;;;;;;;27.00;38.63;100759.84;7362476;19;19939;-62
2022/05/31 13:23:38;;;;;;;;;;;;;;;26.87;38.08;100757.44;7362818;19;19922;-63
2022/05/31 13:26:06;;;;;;;;;;;;;;;26.67;36.93;100762.91;7361255;19;19915;-63
2022/05/31 13:29:01;;;;;;;;;;;;;;;26.38;37.44;100752.91;7360415;19;19914;-62